sensor_id;sensor_type;location;lat;lon;timestamp;pressure;altitude;pressure_sealevel;temperature;humidity
3844;BME280;1937;51.444;6.484;2022-12-13T00:01:49;66593.78;;;-5.51;98.32
3844;BME280;1937;51.444;6.484;2022-12-13T00:04:19;66674.00;;;-5.44;98.47
3844;BME280;1937;51.444;6.484;2022-12-13T00:06:48;66643.38;;;-5.38;98.67
3844;BME280;1937;51.444;6.484;2022-12-13T00:09:17;66687.19;;;-5.30;97.92
3844;BME280;1937;51.444;6.484;2022-12-13T00:11:46;66659.78;;;-5.32;98.60
3844;BME280;1937;51.444;6.484;2022-12-13T00:14:16;66649.78;;;-5.26;98.35
3844;BME280;1937;51.444;6.484;2022-12-13T00:16:46;66688.13;;;-5.34;98.09
3844;BME280;1937;51.444;6.484;2022-12-13T00:19:17;66669.06;;;-5.24;98.41
3844;BME280;1937;51.444;6.484;2022-12-13T00:21:46;66667.31;;;-5.32;98.10
3844;BME280;1937;51.444;6.484;2022-12-13T00:24:14;66666.34;;;-5.29;98.41
3844;BME280;1937;51.444;6.484;2022-12-13T00:26:43;66631.44;;;-5.31;98.19
3844;BME280;1937;51.444;6.484;2022-12-13T00:29:11;66663.44;;;-5.31;97.84
3844;BME280;1937;51.444;6.484;2022-12-13T00:31:40;66681.81;;;-5.20;98.00
3844;BME280;1937;51.444;6.484;2022-12-13T00:34:08;66662.91;;;-5.12;97.48
3844;BME280;1937;51.444;6.484;2022-12-13T00:36:38;66588.38;;;-5.47;98.21
3844;BME280;1937;51.444;6.484;2022-12-13T00:39:07;66619.03;;;-5.46;98.55
3844;BME280;1937;51.444;6.484;2022-12-13T00:41:38;66632.34;;;-5.48;98.65
3844;BME280;1937;51.444;6.484;2022-12-13T00:44:08;66648.75;;;-5.42;98.52
3844;BME280;1937;51.444;6.484;2022-12-13T00:46:38;66615.16;;;-5.52;97.87
3844;BME280;1937;51.444;6.484;2022-12-13T00:49:08;66600.72;;;-5.45;97.40
3844;BME280;1937;51.444;6.484;2022-12-13T00:51:40;66639.66;;;-5.46;98.32
3844;BME280;1937;51.444;6.484;2022-12-13T00:54:09;66624.25;;;-5.42;97.39
3844;BME280;1937;51.444;6.484;2022-12-13T00:56:38;66574.31;;;-5.50;97.18
3844;BME280;1937;51.444;6.484;2022-12-13T00:59:06;66620.00;;;-5.50;97.61
3844;BME280;1937;51.444;6.484;2022-12-13T01:01:35;66623.81;;;-5.57;97.29
3844;BME280;1937;51.444;6.484;2022-12-13T01:04:05;66560.78;;;-5.60;97.39
3844;BME280;1937;51.444;6.484;2022-12-13T01:06:37;66559.22;;;-5.63;97.28
3844;BME280;1937;51.444;6.484;2022-12-13T01:09:09;66545.94;;;-5.62;97.24
3844;BME280;1937;51.444;6.484;2022-12-13T01:11:40;66531.06;;;-5.64;97.43
3844;BME280;1937;51.444;6.484;2022-12-13T01:14:08;66535.72;;;-5.66;96.99
3844;BME280;1937;51.444;6.484;2022-12-13T01:16:37;66518.34;;;-5.68;97.39
3844;BME280;1937;51.444;6.484;2022-12-13T01:19:05;66546.50;;;-5.68;97.69
3844;BME280;1937;51.444;6.484;2022-12-13T01:21:33;66519.09;;;-5.70;97.55
3844;BME280;1937;51.444;6.484;2022-12-13T01:24:03;66515.06;;;-5.73;97.16
3844;BME280;1937;51.444;6.484;2022-12-13T01:26:34;66532.63;;;-5.67;97.29
3844;BME280;1937;51.444;6.484;2022-12-13T01:29:02;66554.44;;;-5.52;96.80
3844;BME280;1937;51.444;6.484;2022-12-13T01:31:32;66556.75;;;-5.57;96.81
3844;BME280;1937;51.444;6.484;2022-12-13T01:34:01;66532.84;;;-5.56;96.60
3844;BME280;1937;51.444;6.484;2022-12-13T01:36:37;66520.88;;;-5.62;96.90
3844;BME280;1937;51.444;6.484;2022-12-13T01:39:06;66552.66;;;-5.67;96.88
3844;BME280;1937;51.444;6.484;2022-12-13T01:41:37;66552.84;;;-5.69;97.09
3844;BME280;1937;51.444;6.484;2022-12-13T01:44:50;66501.94;;;-5.87;97.41
3844;BME280;1937;51.444;6.484;2022-12-13T01:46:52;66472.25;;;-5.85;97.02
3844;BME280;1937;51.444;6.484;2022-12-13T01:49:21;66479.78;;;-5.98;97.03
3844;BME280;1937;51.444;6.484;2022-12-13T01:51:54;66458.19;;;-5.95;96.71
3844;BME280;1937;51.444;6.484;2022-12-13T01:54:27;66477.84;;;-5.97;96.64
3844;BME280;1937;51.444;6.484;2022-12-13T01:56:59;66461.84;;;-6.00;97.42
3844;BME280;1937;51.444;6.484;2022-12-13T01:59:29;66496.53;;;-5.96;97.22
3844;BME280;1937;51.444;6.484;2022-12-13T02:01:58;66518.06;;;-6.06;96.90
3844;BME280;1937;51.444;6.484;2022-12-13T02:04:32;66479.38;;;-6.00;96.75
3844;BME280;1937;51.444;6.484;2022-12-13T02:07:05;66443.94;;;-6.03;96.98
3844;BME280;1937;51.444;6.484;2022-12-13T02:09:35;66454.88;;;-6.06;97.24
3844;BME280;1937;51.444;6.484;2022-12-13T02:12:06;66468.59;;;-5.99;97.10
3844;BME280;1937;51.444;6.484;2022-12-13T02:14:35;66509.66;;;-5.89;97.12
3844;BME280;1937;51.444;6.484;2022-12-13T02:17:11;66502.91;;;-5.91;96.89
3844;BME280;1937;51.444;6.484;2022-12-13T02:20:05;66476.91;;;-5.87;97.31
3844;BME280;1937;51.444;6.484;2022-12-13T02:22:52;66464.75;;;-5.91;97.38
3844;BME280;1937;51.444;6.484;2022-12-13T02:25:58;66448.56;;;-5.92;96.28
3844;BME280;1937;51.444;6.484;2022-12-13T02:28:47;66471.69;;;-5.98;96.41
3844;BME280;1937;51.444;6.484;2022-12-13T02:31:27;66443.94;;;-6.03;96.39
3844;BME280;1937;51.444;6.484;2022-12-13T02:34:00;66436.94;;;-6.22;96.91
3844;BME280;1937;51.444;6.484;2022-12-13T02:36:36;66454.53;;;-6.02;96.69
3844;BME280;1937;51.444;6.484;2022-12-13T02:39:13;66458.19;;;-6.01;96.76
3844;BME280;1937;51.444;6.484;2022-12-13T02:41:48;66505.75;;;-6.08;96.24
3844;BME280;1937;51.444;6.484;2022-12-13T02:44:19;66446.03;;;-6.05;96.73
3844;BME280;1937;51.444;6.484;2022-12-13T02:46:54;66489.00;;;-6.03;96.62
3844;BME280;1937;51.444;6.484;2022-12-13T02:49:25;66439.13;;;-5.98;96.25
3844;BME280;1937;51.444;6.484;2022-12-13T02:51:55;66408.84;;;-6.09;96.50
3844;BME280;1937;51.444;6.484;2022-12-13T02:54:24;66478.41;;;-6.03;96.47
3844;BME280;1937;51.444;6.484;2022-12-13T02:56:57;66409.03;;;-6.11;96.12
3844;BME280;1937;51.444;6.484;2022-12-13T02:59:31;66416.75;;;-6.13;96.38
3844;BME280;1937;51.444;6.484;2022-12-13T03:02:10;66410.97;;;-6.25;96.75
3844;BME280;1937;51.444;6.484;2022-12-13T03:04:53;66422.69;;;-6.24;96.53
3844;BME280;1937;51.444;6.484;2022-12-13T03:07:49;66458.94;;;-6.09;96.33
3844;BME280;1937;51.444;6.484;2022-12-13T03:10:31;66427.34;;;-6.06;96.06
3844;BME280;1937;51.444;6.484;2022-12-13T03:13:05;66435.44;;;-6.06;96.89
3844;BME280;1937;51.444;6.484;2022-12-13T03:15:55;66529.66;;;-6.02;97.33
3844;BME280;1937;51.444;6.484;2022-12-13T03:18:28;66479.00;;;-5.96;96.92
3844;BME280;1937;51.444;6.484;2022-12-13T03:21:01;66460.13;;;-6.02;96.55
3844;BME280;1937;51.444;6.484;2022-12-13T03:23:30;66414.44;;;-6.09;96.90
3844;BME280;1937;51.444;6.484;2022-12-13T03:26:04;66471.63;;;-6.18;96.49
3844;BME280;1937;51.444;6.484;2022-12-13T03:28:33;66428.69;;;-6.14;96.53
3844;BME280;1937;51.444;6.484;2022-12-13T03:31:02;66389.00;;;-6.25;96.24
3844;BME280;1937;51.444;6.484;2022-12-13T03:33:32;66375.13;;;-6.37;96.31
3844;BME280;1937;51.444;6.484;2022-12-13T03:36:01;66385.72;;;-6.43;96.55
3844;BME280;1937;51.444;6.484;2022-12-13T03:38:31;66403.81;;;-6.42;96.67
3844;BME280;1937;51.444;6.484;2022-12-13T03:41:02;66363.75;;;-6.42;96.72
3844;BME280;1937;51.444;6.484;2022-12-13T03:43:32;66357.03;;;-6.44;96.29
3844;BME280;1937;51.444;6.484;2022-12-13T03:46:00;66357.78;;;-6.45;96.39
3844;BME280;1937;51.444;6.484;2022-12-13T03:48:29;66324.88;;;-6.48;96.77
3844;BME280;1937;51.444;6.484;2022-12-13T03:50:58;66407.84;;;-6.45;96.14
3844;BME280;1937;51.444;6.484;2022-12-13T03:53:27;66434.00;;;-6.44;96.38
3844;BME280;1937;51.444;6.484;2022-12-13T03:55:56;66351.03;;;-6.47;96.06
3844;BME280;1937;51.444;6.484;2022-12-13T03:58:24;66393.41;;;-6.32;96.96
3844;BME280;1937;51.444;6.484;2022-12-13T04:00:53;66430.19;;;-6.37;95.92
3844;BME280;1937;51.444;6.484;2022-12-13T04:03:21;66359.91;;;-6.41;96.20
3844;BME280;1937;51.444;6.484;2022-12-13T04:05:49;66305.59;;;-6.63;96.32
3844;BME280;1937;51.444;6.484;2022-12-13T04:08:19;66342.56;;;-6.50;95.92
3844;BME280;1937;51.444;6.484;2022-12-13T04:10:47;66332.38;;;-6.48;96.25
3844;BME280;1937;51.444;6.484;2022-12-13T04:13:15;66386.44;;;-6.51;96.42
3844;BME280;1937;51.444;6.484;2022-12-13T04:15:59;66358.16;;;-6.49;96.33
3844;BME280;1937;51.444;6.484;2022-12-13T04:18:29;66304.44;;;-6.57;95.64
3844;BME280;1937;51.444;6.484;2022-12-13T04:20:57;66282.31;;;-6.61;96.10
3844;BME280;1937;51.444;6.484;2022-12-13T04:23:27;66351.03;;;-6.53;96.13
3844;BME280;1937;51.444;6.484;2022-12-13T04:25:55;66344.47;;;-6.57;95.79
3844;BME280;1937;51.444;6.484;2022-12-13T04:28:24;66308.28;;;-6.65;96.16
3844;BME280;1937;51.444;6.484;2022-12-13T04:30:53;66332.16;;;-6.66;95.97
3844;BME280;1937;51.444;6.484;2022-12-13T04:33:22;66302.91;;;-6.67;95.87
3844;BME280;1937;51.444;6.484;2022-12-13T04:35:51;66327.34;;;-6.61;95.48
3844;BME280;1937;51.444;6.484;2022-12-13T04:38:19;66298.66;;;-6.69;95.79
3844;BME280;1937;51.444;6.484;2022-12-13T04:40:49;66289.22;;;-6.75;95.97
3844;BME280;1937;51.444;6.484;2022-12-13T04:43:17;66280.78;;;-6.78;96.11
3844;BME280;1937;51.444;6.484;2022-12-13T04:45:45;66211.31;;;-6.90;96.50
3844;BME280;1937;51.444;6.484;2022-12-13T04:48:14;66286.72;;;-6.81;96.67
3844;BME280;1937;51.444;6.484;2022-12-13T04:50:42;66306.75;;;-6.75;96.38
3844;BME280;1937;51.444;6.484;2022-12-13T04:53:15;66332.53;;;-6.70;96.13
3844;BME280;1937;51.444;6.484;2022-12-13T04:55:43;66314.06;;;-6.73;96.49
3844;BME280;1937;51.444;6.484;2022-12-13T04:58:13;66352.19;;;-6.66;96.10
3844;BME280;1937;51.444;6.484;2022-12-13T05:00:41;66335.44;;;-6.67;95.76
3844;BME280;1937;51.444;6.484;2022-12-13T05:03:10;66303.88;;;-6.64;95.66
3844;BME280;1937;51.444;6.484;2022-12-13T05:05:39;66275.38;;;-6.74;96.15
3844;BME280;1937;51.444;6.484;2022-12-13T05:08:09;66365.03;;;-6.76;96.51
3844;BME280;1937;51.444;6.484;2022-12-13T05:10:38;66264.59;;;-6.85;96.59
3844;BME280;1937;51.444;6.484;2022-12-13T05:13:06;66232.69;;;-6.78;96.20
3844;BME280;1937;51.444;6.484;2022-12-13T05:15:36;66272.28;;;-6.87;96.09
3844;BME280;1937;51.444;6.484;2022-12-13T05:18:06;66244.41;;;-6.90;95.92
3844;BME280;1937;51.444;6.484;2022-12-13T05:20:35;66264.19;;;-6.94;95.78
3844;BME280;1937;51.444;6.484;2022-12-13T05:23:03;66334.06;;;-6.79;95.84
3844;BME280;1937;51.444;6.484;2022-12-13T05:25:33;66317.50;;;-6.76;96.42
3844;BME280;1937;51.444;6.484;2022-12-13T05:28:03;66293.47;;;-6.80;96.12
3844;BME280;1937;51.444;6.484;2022-12-13T05:30:31;66294.63;;;-6.85;96.14
3844;BME280;1937;51.444;6.484;2022-12-13T05:33:01;66269.41;;;-6.90;95.73
3844;BME280;1937;51.444;6.484;2022-12-13T05:35:29;66270.19;;;-6.85;95.94
3844;BME280;1937;51.444;6.484;2022-12-13T05:37:58;66253.44;;;-6.86;95.91
3844;BME280;1937;51.444;6.484;2022-12-13T05:40:28;66250.16;;;-6.91;96.02
3844;BME280;1937;51.444;6.484;2022-12-13T05:42:57;66275.00;;;-6.89;95.24
3844;BME280;1937;51.444;6.484;2022-12-13T05:45:26;66231.50;;;-6.99;95.54
3844;BME280;1937;51.444;6.484;2022-12-13T05:47:54;66244.97;;;-7.03;95.89
3844;BME280;1937;51.444;6.484;2022-12-13T05:50:24;66218.63;;;-7.01;95.97
3844;BME280;1937;51.444;6.484;2022-12-13T05:52:53;66201.50;;;-7.06;95.99
3844;BME280;1937;51.444;6.484;2022-12-13T05:55:22;66202.06;;;-7.12;95.37
3844;BME280;1937;51.444;6.484;2022-12-13T05:57:50;66246.13;;;-7.08;95.52
3844;BME280;1937;51.444;6.484;2022-12-13T06:00:20;66264.78;;;-7.07;95.60
3844;BME280;1937;51.444;6.484;2022-12-13T06:02:48;66187.47;;;-7.09;95.82
3844;BME280;1937;51.444;6.484;2022-12-13T06:05:17;66244.97;;;-7.03;95.86
3844;BME280;1937;51.444;6.484;2022-12-13T06:07:49;66256.88;;;-7.10;95.81
3844;BME280;1937;51.444;6.484;2022-12-13T06:10:18;66217.63;;;-7.18;95.73
3844;BME280;1937;51.444;6.484;2022-12-13T06:12:47;66248.41;;;-7.26;96.45
3844;BME280;1937;51.444;6.484;2022-12-13T06:15:16;66239.56;;;-7.18;96.70
3844;BME280;1937;51.444;6.484;2022-12-13T06:17:44;66281.50;;;-7.06;96.02
3844;BME280;1937;51.444;6.484;2022-12-13T06:20:13;66276.09;;;-7.15;96.31
3844;BME280;1937;51.444;6.484;2022-12-13T06:22:42;66245.72;;;-7.11;95.84
3844;BME280;1937;51.444;6.484;2022-12-13T06:25:11;66238.78;;;-7.17;95.76
3844;BME280;1937;51.444;6.484;2022-12-13T06:27:40;66206.31;;;-7.17;95.89
3844;BME280;1937;51.444;6.484;2022-12-13T06:30:10;66284.75;;;-7.20;95.58
3844;BME280;1937;51.444;6.484;2022-12-13T06:32:38;66195.91;;;-7.32;95.78
3844;BME280;1937;51.444;6.484;2022-12-13T06:35:07;66186.88;;;-7.36;96.03
3844;BME280;1937;51.444;6.484;2022-12-13T06:37:37;66214.00;;;-7.25;96.15
3844;BME280;1937;51.444;6.484;2022-12-13T06:40:07;66207.44;;;-7.29;95.97
3844;BME280;1937;51.444;6.484;2022-12-13T06:42:36;66213.03;;;-7.22;95.88
3844;BME280;1937;51.444;6.484;2022-12-13T06:45:06;66187.84;;;-7.33;96.05
3844;BME280;1937;51.444;6.484;2022-12-13T06:47:34;66203.00;;;-7.35;96.05
3844;BME280;1937;51.444;6.484;2022-12-13T06:50:03;66201.31;;;-7.36;95.95
3844;BME280;1937;51.444;6.484;2022-12-13T06:52:31;66193.03;;;-7.35;95.44
3844;BME280;1937;51.444;6.484;2022-12-13T06:55:00;66217.22;;;-7.40;96.19
3844;BME280;1937;51.444;6.484;2022-12-13T06:57:28;66207.06;;;-7.31;95.85
3844;BME280;1937;51.444;6.484;2022-12-13T06:59:59;66213.78;;;-7.23;95.77
3844;BME280;1937;51.444;6.484;2022-12-13T07:02:29;66212.06;;;-7.18;95.47
3844;BME280;1937;51.444;6.484;2022-12-13T07:04:59;66183.22;;;-7.24;95.67
3844;BME280;1937;51.444;6.484;2022-12-13T07:07:27;66190.94;;;-7.26;95.77
3844;BME280;1937;51.444;6.484;2022-12-13T07:09:55;66194.94;;;-7.29;95.63
3844;BME280;1937;51.444;6.484;2022-12-13T07:12:24;66195.13;;;-7.24;95.70
3844;BME280;1937;51.444;6.484;2022-12-13T07:14:52;66172.44;;;-7.42;95.49
3844;BME280;1937;51.444;6.484;2022-12-13T07:17:22;66209.56;;;-7.25;95.46
3844;BME280;1937;51.444;6.484;2022-12-13T07:19:50;66182.66;;;-7.31;95.38
3844;BME280;1937;51.444;6.484;2022-12-13T07:22:19;66260.31;;;-7.33;95.49
3844;BME280;1937;51.444;6.484;2022-12-13T07:24:47;66222.63;;;-7.31;95.92
3844;BME280;1937;51.444;6.484;2022-12-13T07:27:15;66200.53;;;-7.28;95.82
3844;BME280;1937;51.444;6.484;2022-12-13T07:29:44;66226.88;;;-7.10;95.84
3844;BME280;1937;51.444;6.484;2022-12-13T07:32:13;66209.00;;;-7.12;95.63
3844;BME280;1937;51.444;6.484;2022-12-13T07:34:42;66185.94;;;-7.13;95.55
3844;BME280;1937;51.444;6.484;2022-12-13T07:37:11;66284.41;;;-6.96;96.16
3844;BME280;1937;51.444;6.484;2022-12-13T07:39:39;66267.47;;;-6.96;96.62
3844;BME280;1937;51.444;6.484;2022-12-13T07:42:07;66304.06;;;-6.73;97.00
3844;BME280;1937;51.444;6.484;2022-12-13T07:44:36;66349.09;;;-6.59;97.30
3844;BME280;1937;51.444;6.484;2022-12-13T07:47:05;66430.00;;;-6.35;97.61
3844;BME280;1937;51.444;6.484;2022-12-13T07:49:34;66440.22;;;-6.24;97.96
3844;BME280;1937;51.444;6.484;2022-12-13T07:52:04;66451.22;;;-6.14;97.69
3844;BME280;1937;51.444;6.484;2022-12-13T07:54:32;66485.75;;;-6.01;97.39
3844;BME280;1937;51.444;6.484;2022-12-13T07:57:00;66504.78;;;-6.04;97.42
3844;BME280;1937;51.444;6.484;2022-12-13T07:59:28;66478.44;;;-5.97;97.71
3844;BME280;1937;51.444;6.484;2022-12-13T08:01:57;66509.09;;;-5.90;97.26
3844;BME280;1937;51.444;6.484;2022-12-13T08:04:26;66467.25;;;-5.91;97.31
3844;BME280;1937;51.444;6.484;2022-12-13T08:06:55;66486.72;;;-5.79;97.23
3844;BME280;1937;51.444;6.484;2022-12-13T08:09:24;66472.44;;;-5.87;97.15
3844;BME280;1937;51.444;6.484;2022-12-13T08:11:56;66540.91;;;-5.62;97.14
3844;BME280;1937;51.444;6.484;2022-12-13T08:14:24;66568.84;;;-5.72;97.10
3844;BME280;1937;51.444;6.484;2022-12-13T08:16:52;66566.41;;;-5.46;96.89
3844;BME280;1937;51.444;6.484;2022-12-13T08:19:21;66534.19;;;-5.50;96.44
3844;BME280;1937;51.444;6.484;2022-12-13T08:21:49;66519.72;;;-5.63;96.76
3844;BME280;1937;51.444;6.484;2022-12-13T08:24:18;66564.66;;;-5.48;97.59
3844;BME280;1937;51.444;6.484;2022-12-13T08:26:48;66611.50;;;-5.53;97.41
3844;BME280;1937;51.444;6.484;2022-12-13T08:29:17;66587.78;;;-5.47;98.57
3844;BME280;1937;51.444;6.484;2022-12-13T08:31:46;66636.25;;;-5.29;98.77
3844;BME280;1937;51.444;6.484;2022-12-13T08:34:14;66696.28;;;-5.20;99.17
3844;BME280;1937;51.444;6.484;2022-12-13T08:36:43;66694.38;;;-5.13;98.48
3844;BME280;1937;51.444;6.484;2022-12-13T08:39:11;66773.56;;;-4.95;98.90
3844;BME280;1937;51.444;6.484;2022-12-13T08:41:40;66911.16;;;-4.34;99.14
3844;BME280;1937;51.444;6.484;2022-12-13T08:44:10;67050.16;;;-3.59;99.57
3844;BME280;1937;51.444;6.484;2022-12-13T08:46:38;67154.31;;;-3.21;99.56
3844;BME280;1937;51.444;6.484;2022-12-13T08:49:06;67219.19;;;-2.86;98.45
3844;BME280;1937;51.444;6.484;2022-12-13T08:51:34;67288.09;;;-2.40;98.60
3844;BME280;1937;51.444;6.484;2022-12-13T08:54:03;67217.34;;;-2.38;96.59
3844;BME280;1937;51.444;6.484;2022-12-13T08:56:31;67085.38;;;-2.28;95.64
3844;BME280;1937;51.444;6.484;2022-12-13T08:59:00;67051.69;;;-2.11;94.05
3844;BME280;1937;51.444;6.484;2022-12-13T09:01:29;66927.75;;;-2.60;92.40
3844;BME280;1937;51.444;6.484;2022-12-13T09:03:58;66782.28;;;-2.72;92.72
3844;BME280;1937;51.444;6.484;2022-12-13T09:06:26;66679.91;;;-3.20;92.58
3844;BME280;1937;51.444;6.484;2022-12-13T09:08:54;66635.63;;;-3.43;92.82
3844;BME280;1937;51.444;6.484;2022-12-13T09:11:22;66605.88;;;-3.67;94.06
3844;BME280;1937;51.444;6.484;2022-12-13T09:13:51;66685.16;;;-3.61;94.53
3844;BME280;1937;51.444;6.484;2022-12-13T09:16:21;66708.75;;;-3.32;94.64
3844;BME280;1937;51.444;6.484;2022-12-13T09:18:52;66807.66;;;-3.07;94.68
3844;BME280;1937;51.444;6.484;2022-12-13T09:21:21;66787.53;;;-3.01;94.29
3844;BME280;1937;51.444;6.484;2022-12-13T09:23:50;66733.69;;;-2.91;94.00
3844;BME280;1937;51.444;6.484;2022-12-13T09:26:19;66776.84;;;-2.81;92.77
3844;BME280;1937;51.444;6.484;2022-12-13T09:28:50;66752.63;;;-2.78;92.79
3844;BME280;1937;51.444;6.484;2022-12-13T09:31:19;66743.69;;;-2.71;92.99
3844;BME280;1937;51.444;6.484;2022-12-13T09:33:47;66671.53;;;-2.99;92.43
3844;BME280;1937;51.444;6.484;2022-12-13T09:36:19;66618.91;;;-3.14;93.39
3844;BME280;1937;51.444;6.484;2022-12-13T09:38:50;66689.75;;;-3.05;93.44
3844;BME280;1937;51.444;6.484;2022-12-13T09:41:23;66681.22;;;-3.01;93.49
3844;BME280;1937;51.444;6.484;2022-12-13T09:43:55;66671.53;;;-2.99;93.24
3844;BME280;1937;51.444;6.484;2022-12-13T09:46:28;66683.75;;;-3.01;93.53
3844;BME280;1937;51.444;6.484;2022-12-13T09:48:59;66726.72;;;-3.03;93.72
3844;BME280;1937;51.444;6.484;2022-12-13T09:51:31;66714.31;;;-2.99;93.60
3844;BME280;1937;51.444;6.484;2022-12-13T09:54:00;66764.06;;;-2.79;93.20
3844;BME280;1937;51.444;6.484;2022-12-13T09:56:29;66712.94;;;-2.84;93.45
3844;BME280;1937;51.444;6.484;2022-12-13T09:58:57;66738.72;;;-2.84;93.90
3844;BME280;1937;51.444;6.484;2022-12-13T10:01:26;66737.13;;;-2.74;94.00
3844;BME280;1937;51.444;6.484;2022-12-13T10:03:56;66762.69;;;-2.65;94.20
3844;BME280;1937;51.444;6.484;2022-12-13T10:06:27;66789.22;;;-2.53;93.45
3844;BME280;1937;51.444;6.484;2022-12-13T10:09:01;66830.84;;;-2.34;92.83
3844;BME280;1937;51.444;6.484;2022-12-13T10:11:33;66772.13;;;-2.33;92.70
3844;BME280;1937;51.444;6.484;2022-12-13T10:14:04;66819.59;;;-2.16;92.33
3844;BME280;1937;51.444;6.484;2022-12-13T10:16:43;66743.22;;;-2.27;91.79
3844;BME280;1937;51.444;6.484;2022-12-13T10:19:17;66822.09;;;-2.02;92.34
3844;BME280;1937;51.444;6.484;2022-12-13T10:21:49;66747.78;;;-1.97;91.96
3844;BME280;1937;51.444;6.484;2022-12-13T10:24:21;66760.41;;;-2.03;91.62
3844;BME280;1937;51.444;6.484;2022-12-13T10:26:51;66778.38;;;-1.81;90.52
3844;BME280;1937;51.444;6.484;2022-12-13T10:29:20;66742.09;;;-1.78;90.64
3844;BME280;1937;51.444;6.484;2022-12-13T10:31:51;66750.72;;;-1.57;90.60
3844;BME280;1937;51.444;6.484;2022-12-13T10:34:23;66820.91;;;-1.33;90.10
3844;BME280;1937;51.444;6.484;2022-12-13T10:36:53;66796.63;;;-1.30;89.90
3844;BME280;1937;51.444;6.484;2022-12-13T10:42:16;66795.69;;;-0.96;88.70
3844;BME280;1937;51.444;6.484;2022-12-13T10:44:46;66790.75;;;-0.85;88.17
3844;BME280;1937;51.444;6.484;2022-12-13T10:47:19;66743.59;;;-0.93;88.55
3844;BME280;1937;51.444;6.484;2022-12-13T10:49:52;66725.38;;;-1.00;87.59
3844;BME280;1937;51.444;6.484;2022-12-13T10:52:25;66667.25;;;-0.93;87.49
3844;BME280;1937;51.444;6.484;2022-12-13T10:54:57;66644.63;;;-1.06;87.32
3844;BME280;1937;51.444;6.484;2022-12-13T10:57:27;66604.66;;;-1.41;88.90
3844;BME280;1937;51.444;6.484;2022-12-13T10:59:56;66663.75;;;-1.20;88.05
3844;BME280;1937;51.444;6.484;2022-12-13T11:02:31;66707.25;;;-0.89;88.23
3844;BME280;1937;51.444;6.484;2022-12-13T11:05:17;66732.56;;;-0.71;86.95
3844;BME280;1937;51.444;6.484;2022-12-13T11:07:48;66710.25;;;-0.75;86.46
3844;BME280;1937;51.444;6.484;2022-12-13T11:10:20;66721.97;;;-0.54;86.35
3844;BME280;1937;51.444;6.484;2022-12-13T11:12:52;66680.94;;;-0.55;85.57
3844;BME280;1937;51.444;6.484;2022-12-13T11:15:24;66672.41;;;-0.82;86.03
3844;BME280;1937;51.444;6.484;2022-12-13T11:17:57;66599.03;;;-0.69;85.93
3844;BME280;1937;51.444;6.484;2022-12-13T11:20:30;66613.66;;;-0.76;85.29
3844;BME280;1937;51.444;6.484;2022-12-13T11:23:04;66688.47;;;-0.48;85.35
3844;BME280;1937;51.444;6.484;2022-12-13T11:25:35;66551.69;;;-0.57;83.94
3844;BME280;1937;51.444;6.484;2022-12-13T11:28:19;66567.72;;;-0.65;84.32
3844;BME280;1937;51.444;6.484;2022-12-13T11:30:57;66605.06;;;-0.48;84.14
3844;BME280;1937;51.444;6.484;2022-12-13T11:33:36;66643.41;;;-0.34;83.65
3844;BME280;1937;51.444;6.484;2022-12-13T11:36:12;66567.50;;;-0.46;83.48
3844;BME280;1937;51.444;6.484;2022-12-13T11:38:54;66583.56;;;-0.36;83.58
3844;BME280;1937;51.444;6.484;2022-12-13T11:41:30;66611.50;;;-0.31;84.11
3844;BME280;1937;51.444;6.484;2022-12-13T11:44:05;66577.84;;;-0.48;83.55
3844;BME280;1937;51.444;6.484;2022-12-13T11:46:39;66615.56;;;-0.28;83.34
3844;BME280;1937;51.444;6.484;2022-12-13T11:49:15;66565.44;;;-0.14;82.38
3844;BME280;1937;51.444;6.484;2022-12-13T11:51:47;66538.13;;;-0.25;81.90
3844;BME280;1937;51.444;6.484;2022-12-13T11:54:22;66577.34;;;-0.19;82.12
3844;BME280;1937;51.444;6.484;2022-12-13T11:56:57;66582.41;;;-0.19;82.56
3844;BME280;1937;51.444;6.484;2022-12-13T11:59:37;66618.75;;;0.02;81.94
3844;BME280;1937;51.444;6.484;2022-12-13T12:02:17;66620.88;;;0.23;80.66
3844;BME280;1937;51.444;6.484;2022-12-13T12:04:49;66548.84;;;0.22;79.81
3844;BME280;1937;51.444;6.484;2022-12-13T12:07:21;66587.78;;;0.36;80.22
3844;BME280;1937;51.444;6.484;2022-12-13T12:09:54;66607.84;;;0.38;80.71
3844;BME280;1937;51.444;6.484;2022-12-13T12:12:26;66562.66;;;0.23;81.60
3844;BME280;1937;51.444;6.484;2022-12-13T12:15:00;66592.19;;;0.60;80.94
3844;BME280;1937;51.444;6.484;2022-12-13T12:17:31;66600.19;;;0.74;78.83
3844;BME280;1937;51.444;6.484;2022-12-13T12:20:00;66608.19;;;0.88;79.72
3844;BME280;1937;51.444;6.484;2022-12-13T12:22:42;66696.56;;;1.43;78.59
3844;BME280;1937;51.444;6.484;2022-12-13T12:25:25;66657.97;;;1.24;76.42
3844;BME280;1937;51.444;6.484;2022-12-13T12:28:00;66587.41;;;0.98;76.48
3844;BME280;1937;51.444;6.484;2022-12-13T12:30:40;66621.97;;;1.06;76.70
3844;BME280;1937;51.444;6.484;2022-12-13T12:33:17;66579.16;;;1.15;76.54
3844;BME280;1937;51.444;6.484;2022-12-13T12:35:57;66637.13;;;1.53;75.97
3844;BME280;1937;51.444;6.484;2022-12-13T12:38:39;66587.47;;;1.20;75.78
3844;BME280;1937;51.444;6.484;2022-12-13T12:41:21;66577.59;;;1.30;75.67
3844;BME280;1937;51.444;6.484;2022-12-13T12:43:58;66522.09;;;0.88;76.06
3844;BME280;1937;51.444;6.484;2022-12-13T12:46:42;66510.53;;;0.77;75.93
3844;BME280;1937;51.444;6.484;2022-12-13T12:52:17;66499.06;;;1.01;74.80
3844;BME280;1937;51.444;6.484;2022-12-13T12:54:54;66456.34;;;0.81;75.15
3844;BME280;1937;51.444;6.484;2022-12-13T12:57:33;66466.16;;;1.01;73.92
3844;BME280;1937;51.444;6.484;2022-12-13T13:00:11;66469.69;;;0.86;74.71
3844;BME280;1937;51.444;6.484;2022-12-13T13:02:46;66465.31;;;0.91;73.63
3844;BME280;1937;51.444;6.484;2022-12-13T13:05:23;66497.81;;;1.06;74.43
3844;BME280;1937;51.444;6.484;2022-12-13T13:07:57;66451.06;;;0.94;73.41
3844;BME280;1937;51.444;6.484;2022-12-13T13:10:29;66452.53;;;0.75;73.39
3844;BME280;1937;51.444;6.484;2022-12-13T13:12:58;66452.63;;;0.69;74.32
3844;BME280;1937;51.444;6.484;2022-12-13T13:15:58;66479.81;;;0.86;73.04
3844;BME280;1937;51.444;6.484;2022-12-13T13:18:45;66419.72;;;0.91;73.92
3844;BME280;1937;51.444;6.484;2022-12-13T13:21:32;66464.19;;;1.12;73.18
3844;BME280;1937;51.444;6.484;2022-12-13T13:24:23;66396.03;;;0.88;73.95
3844;BME280;1937;51.444;6.484;2022-12-13T13:26:55;66438.91;;;0.61;73.80
3844;BME280;1937;51.444;6.484;2022-12-13T13:29:33;66451.84;;;0.81;73.77
3844;BME280;1937;51.444;6.484;2022-12-13T13:32:03;66392.53;;;0.74;73.51
3844;BME280;1937;51.444;6.484;2022-12-13T13:34:35;66393.47;;;0.77;73.84
3844;BME280;1937;51.444;6.484;2022-12-13T13:37:13;66430.91;;;0.88;73.92
3844;BME280;1937;51.444;6.484;2022-12-13T13:40:00;66475.75;;;1.22;73.31
3844;BME280;1937;51.444;6.484;2022-12-13T13:42:30;66468.47;;;1.25;73.24
3844;BME280;1937;51.444;6.484;2022-12-13T13:47:46;66509.19;;;1.30;74.17
3844;BME280;1937;51.444;6.484;2022-12-13T13:53:44;66487.16;;;1.28;74.14
3844;BME280;1937;51.444;6.484;2022-12-13T14:00:08;66495.56;;;1.27;74.57
3844;BME280;1937;51.444;6.484;2022-12-13T14:03:24;66448.66;;;0.99;74.91